Skip Navigation LinksHome page > Weather > Current weather Skip Navigation Links

Current Weather

Indira Gandhi Intl Apt, New Delhi, India

For information only: do not use for flight planning or navigation.
Latest weather
Observation time Saturday, December 20, 2014 9:00 PM IST
Local time Saturday, December 20, 2014 9:21 PM IST
Flight conditions Low Instrument Meteorological Conditions
Winds
Wind direction West (280°)
Wind speed 6 mph
Visibility 0.6 mi.
Present weather mist
Sky condition
Ceiling unlimited
Temperature 48°F
Dewpoint 46°F
Altimeter 30.03 in.Hg
Derived measurements
Relative humidity 93%
Wind chill 46°F
Density altitude 71 ft.
Remarks
No significant changes expected in the next two hours.
METAR VIDP 201530Z 28005KT 1000 R28/P2000 R29/P2000 BR NSC 09/08 Q1017 NOSIG

Settings

Location code

InnerDrive.Weather 4.0.5399.0 Release CLR 4.0.30319.34014
Copyright ©2014 Inner Drive Technology. All rights reserved. Portions Copyright ©1986-2014 David Braverman.

Find weather

Site navigation


Skip Navigation Links

Place info

Page info

PayPal - The safer, easier way to pay online!

Return home.

Copyright ©2014 Inner Drive Technology. Purveyors of fine, hand-crafted computer software. Page printed 2014-12-20T15:51:33 UTC.